sensor_id;sensor_type;location;lat;lon;timestamp;P1;durP1;ratioP1;P2;durP2;ratioP2
44578;SDS011;37422;51.402;0.016;2022-12-15T00:02:38;24.67;;;11.15;;
44578;SDS011;37422;51.402;0.016;2022-12-15T00:05:25;21.15;;;10.45;;
44578;SDS011;37422;51.402;0.016;2022-12-15T00:08:17;24.95;;;10.50;;
44578;SDS011;37422;51.402;0.016;2022-12-15T00:11:03;22.05;;;10.15;;
44578;SDS011;37422;51.402;0.016;2022-12-15T00:13:49;27.15;;;11.18;;
44578;SDS011;37422;51.402;0.016;2022-12-15T00:16:36;30.83;;;12.32;;
44578;SDS011;37422;51.402;0.016;2022-12-15T00:19:22;31.20;;;10.52;;
44578;SDS011;37422;51.402;0.016;2022-12-15T00:22:15;22.15;;;10.35;;
44578;SDS011;37422;51.402;0.016;2022-12-15T00:25:03;30.35;;;11.80;;
44578;SDS011;37422;51.402;0.016;2022-12-15T00:27:50;23.20;;;10.82;;
44578;SDS011;37422;51.402;0.016;2022-12-15T00:30:36;25.88;;;10.95;;
44578;SDS011;37422;51.402;0.016;2022-12-15T00:33:28;26.05;;;10.55;;
44578;SDS011;37422;51.402;0.016;2022-12-15T00:36:14;18.45;;;9.25;;
44578;SDS011;37422;51.402;0.016;2022-12-15T00:39:00;29.33;;;10.07;;
44578;SDS011;37422;51.402;0.016;2022-12-15T00:41:30;27.75;;;10.43;;
44578;SDS011;37422;51.402;0.016;2022-12-15T00:43:57;24.42;;;9.15;;
44578;SDS011;37422;51.402;0.016;2022-12-15T00:46:25;23.90;;;10.02;;
44578;SDS011;37422;51.402;0.016;2022-12-15T00:49:11;27.45;;;10.50;;
44578;SDS011;37422;51.402;0.016;2022-12-15T00:51:58;24.88;;;9.32;;
44578;SDS011;37422;51.402;0.016;2022-12-15T00:54:44;22.65;;;8.95;;
44578;SDS011;37422;51.402;0.016;2022-12-15T00:57:30;22.25;;;8.90;;
44578;SDS011;37422;51.402;0.016;2022-12-15T01:00:16;28.60;;;11.27;;
44578;SDS011;37422;51.402;0.016;2022-12-15T01:03:08;25.77;;;10.10;;
44578;SDS011;37422;51.402;0.016;2022-12-15T01:06:16;26.42;;;11.60;;
44578;SDS011;37422;51.402;0.016;2022-12-15T01:09:04;24.95;;;10.63;;
44578;SDS011;37422;51.402;0.016;2022-12-15T01:11:52;24.48;;;9.93;;
44578;SDS011;37422;51.402;0.016;2022-12-15T01:14:39;31.00;;;12.10;;
44578;SDS011;37422;51.402;0.016;2022-12-15T01:17:25;20.98;;;10.82;;
44578;SDS011;37422;51.402;0.016;2022-12-15T01:20:11;23.90;;;9.95;;
44578;SDS011;37422;51.402;0.016;2022-12-15T01:22:41;24.05;;;9.35;;
44578;SDS011;37422;51.402;0.016;2022-12-15T01:25:09;27.35;;;9.52;;
44578;SDS011;37422;51.402;0.016;2022-12-15T01:27:37;24.92;;;9.70;;
44578;SDS011;37422;51.402;0.016;2022-12-15T01:30:06;24.98;;;11.02;;
44578;SDS011;37422;51.402;0.016;2022-12-15T01:32:34;30.50;;;9.80;;
44578;SDS011;37422;51.402;0.016;2022-12-15T01:35:06;23.88;;;10.10;;
44578;SDS011;37422;51.402;0.016;2022-12-15T01:37:35;25.73;;;10.90;;
44578;SDS011;37422;51.402;0.016;2022-12-15T01:40:03;20.38;;;9.73;;
44578;SDS011;37422;51.402;0.016;2022-12-15T01:42:51;29.67;;;9.35;;
44578;SDS011;37422;51.402;0.016;2022-12-15T01:48:01;24.80;;;10.20;;
44578;SDS011;37422;51.402;0.016;2022-12-15T01:50:31;24.52;;;9.40;;
44578;SDS011;37422;51.402;0.016;2022-12-15T01:53:05;24.52;;;9.68;;
44578;SDS011;37422;51.402;0.016;2022-12-15T01:55:33;23.85;;;10.23;;
44578;SDS011;37422;51.402;0.016;2022-12-15T01:58:04;23.70;;;9.82;;
44578;SDS011;37422;51.402;0.016;2022-12-15T02:00:34;22.10;;;9.73;;
44578;SDS011;37422;51.402;0.016;2022-12-15T02:08:10;21.10;;;9.32;;
44578;SDS011;37422;51.402;0.016;2022-12-15T02:27:24;22.15;;;8.55;;
44578;SDS011;37422;51.402;0.016;2022-12-15T02:32:02;19.30;;;8.32;;
44578;SDS011;37422;51.402;0.016;2022-12-15T02:34:41;18.60;;;8.15;;
44578;SDS011;37422;51.402;0.016;2022-12-15T02:37:16;30.83;;;11.20;;
44578;SDS011;37422;51.402;0.016;2022-12-15T02:39:48;22.38;;;9.55;;
44578;SDS011;37422;51.402;0.016;2022-12-15T02:42:16;26.33;;;10.75;;
44578;SDS011;37422;51.402;0.016;2022-12-15T02:47:21;24.77;;;11.48;;
44578;SDS011;37422;51.402;0.016;2022-12-15T02:55:17;22.30;;;9.57;;
44578;SDS011;37422;51.402;0.016;2022-12-15T02:58:22;22.42;;;9.98;;
44578;SDS011;37422;51.402;0.016;2022-12-15T03:01:07;22.08;;;9.98;;
44578;SDS011;37422;51.402;0.016;2022-12-15T03:03:52;26.95;;;12.18;;
44578;SDS011;37422;51.402;0.016;2022-12-15T03:06:22;24.48;;;10.05;;
44578;SDS011;37422;51.402;0.016;2022-12-15T03:08:51;19.48;;;9.23;;
44578;SDS011;37422;51.402;0.016;2022-12-15T03:11:19;24.80;;;9.35;;
44578;SDS011;37422;51.402;0.016;2022-12-15T03:13:46;25.75;;;9.90;;
44578;SDS011;37422;51.402;0.016;2022-12-15T03:16:15;24.48;;;11.20;;
44578;SDS011;37422;51.402;0.016;2022-12-15T03:18:43;20.75;;;9.95;;
44578;SDS011;37422;51.402;0.016;2022-12-15T03:21:11;27.52;;;10.00;;
44578;SDS011;37422;51.402;0.016;2022-12-15T03:23:39;24.77;;;10.63;;
44578;SDS011;37422;51.402;0.016;2022-12-15T03:26:07;25.48;;;10.43;;
44578;SDS011;37422;51.402;0.016;2022-12-15T03:28:35;29.52;;;9.30;;
44578;SDS011;37422;51.402;0.016;2022-12-15T03:31:02;25.35;;;10.07;;
44578;SDS011;37422;51.402;0.016;2022-12-15T03:33:31;43.25;;;11.80;;
44578;SDS011;37422;51.402;0.016;2022-12-15T03:36:00;25.55;;;11.07;;
44578;SDS011;37422;51.402;0.016;2022-12-15T03:38:28;26.33;;;9.90;;
44578;SDS011;37422;51.402;0.016;2022-12-15T03:40:56;20.55;;;10.02;;
44578;SDS011;37422;51.402;0.016;2022-12-15T03:43:24;25.98;;;9.98;;
44578;SDS011;37422;51.402;0.016;2022-12-15T03:45:51;29.75;;;11.60;;
44578;SDS011;37422;51.402;0.016;2022-12-15T03:48:19;24.48;;;9.63;;
44578;SDS011;37422;51.402;0.016;2022-12-15T03:50:47;24.48;;;10.10;;
44578;SDS011;37422;51.402;0.016;2022-12-15T03:53:16;21.92;;;8.63;;
44578;SDS011;37422;51.402;0.016;2022-12-15T03:55:44;26.48;;;10.80;;
44578;SDS011;37422;51.402;0.016;2022-12-15T03:58:11;26.48;;;11.65;;
44578;SDS011;37422;51.402;0.016;2022-12-15T04:00:39;28.83;;;10.73;;
44578;SDS011;37422;51.402;0.016;2022-12-15T04:03:08;32.50;;;11.60;;
44578;SDS011;37422;51.402;0.016;2022-12-15T04:05:37;30.40;;;10.65;;
44578;SDS011;37422;51.402;0.016;2022-12-15T04:08:05;23.35;;;11.38;;
44578;SDS011;37422;51.402;0.016;2022-12-15T04:10:34;26.60;;;10.43;;
44578;SDS011;37422;51.402;0.016;2022-12-15T04:13:05;32.17;;;10.57;;
44578;SDS011;37422;51.402;0.016;2022-12-15T04:15:36;25.80;;;11.32;;
44578;SDS011;37422;51.402;0.016;2022-12-15T04:18:06;21.40;;;10.10;;
44578;SDS011;37422;51.402;0.016;2022-12-15T04:20:36;22.92;;;10.90;;
44578;SDS011;37422;51.402;0.016;2022-12-15T04:23:06;28.25;;;9.15;;
44578;SDS011;37422;51.402;0.016;2022-12-15T04:25:34;25.02;;;10.93;;
44578;SDS011;37422;51.402;0.016;2022-12-15T04:28:21;24.95;;;10.20;;
44578;SDS011;37422;51.402;0.016;2022-12-15T04:31:08;23.67;;;9.85;;
44578;SDS011;37422;51.402;0.016;2022-12-15T04:34:03;22.88;;;9.23;;
44578;SDS011;37422;51.402;0.016;2022-12-15T04:36:52;21.10;;;9.52;;
44578;SDS011;37422;51.402;0.016;2022-12-15T04:39:40;23.38;;;10.05;;
44578;SDS011;37422;51.402;0.016;2022-12-15T04:42:30;17.70;;;9.02;;
44578;SDS011;37422;51.402;0.016;2022-12-15T04:45:19;23.58;;;9.98;;
44578;SDS011;37422;51.402;0.016;2022-12-15T04:48:09;22.02;;;9.73;;
44578;SDS011;37422;51.402;0.016;2022-12-15T04:50:55;23.90;;;9.77;;
44578;SDS011;37422;51.402;0.016;2022-12-15T04:53:42;31.50;;;10.80;;
44578;SDS011;37422;51.402;0.016;2022-12-15T04:56:30;24.25;;;11.13;;
44578;SDS011;37422;51.402;0.016;2022-12-15T04:59:17;26.55;;;11.07;;
44578;SDS011;37422;51.402;0.016;2022-12-15T05:02:03;19.95;;;9.27;;
44578;SDS011;37422;51.402;0.016;2022-12-15T05:04:50;28.35;;;10.63;;
44578;SDS011;37422;51.402;0.016;2022-12-15T05:07:36;18.30;;;8.98;;
44578;SDS011;37422;51.402;0.016;2022-12-15T05:10:22;19.52;;;8.77;;
44578;SDS011;37422;51.402;0.016;2022-12-15T05:13:08;29.02;;;9.20;;
44578;SDS011;37422;51.402;0.016;2022-12-15T05:15:55;27.67;;;9.30;;
44578;SDS011;37422;51.402;0.016;2022-12-15T05:18:41;23.73;;;9.55;;
44578;SDS011;37422;51.402;0.016;2022-12-15T05:21:27;24.65;;;10.13;;
44578;SDS011;37422;51.402;0.016;2022-12-15T05:24:13;23.98;;;9.88;;
44578;SDS011;37422;51.402;0.016;2022-12-15T05:26:59;24.40;;;9.80;;
44578;SDS011;37422;51.402;0.016;2022-12-15T05:29:45;25.38;;;12.57;;
44578;SDS011;37422;51.402;0.016;2022-12-15T05:32:32;20.63;;;9.30;;
44578;SDS011;37422;51.402;0.016;2022-12-15T05:34:59;24.15;;;10.07;;
44578;SDS011;37422;51.402;0.016;2022-12-15T05:37:27;20.42;;;9.57;;
44578;SDS011;37422;51.402;0.016;2022-12-15T05:39:55;22.02;;;8.27;;
44578;SDS011;37422;51.402;0.016;2022-12-15T05:42:23;23.30;;;10.18;;
44578;SDS011;37422;51.402;0.016;2022-12-15T05:44:50;25.63;;;9.55;;
44578;SDS011;37422;51.402;0.016;2022-12-15T05:47:18;20.50;;;10.10;;
44578;SDS011;37422;51.402;0.016;2022-12-15T05:49:46;25.15;;;9.40;;
44578;SDS011;37422;51.402;0.016;2022-12-15T05:52:13;21.35;;;9.98;;
44578;SDS011;37422;51.402;0.016;2022-12-15T05:54:41;21.08;;;9.55;;
44578;SDS011;37422;51.402;0.016;2022-12-15T05:57:09;21.00;;;9.48;;
44578;SDS011;37422;51.402;0.016;2022-12-15T05:59:37;28.77;;;10.93;;
44578;SDS011;37422;51.402;0.016;2022-12-15T06:02:04;24.75;;;9.45;;
44578;SDS011;37422;51.402;0.016;2022-12-15T06:04:32;19.05;;;8.25;;
44578;SDS011;37422;51.402;0.016;2022-12-15T06:07:00;17.95;;;8.95;;
44578;SDS011;37422;51.402;0.016;2022-12-15T06:09:28;28.42;;;10.15;;
44578;SDS011;37422;51.402;0.016;2022-12-15T06:11:56;25.52;;;9.68;;
44578;SDS011;37422;51.402;0.016;2022-12-15T06:14:23;22.95;;;10.90;;
44578;SDS011;37422;51.402;0.016;2022-12-15T06:16:51;27.33;;;11.82;;
44578;SDS011;37422;51.402;0.016;2022-12-15T06:19:20;24.70;;;11.43;;
44578;SDS011;37422;51.402;0.016;2022-12-15T06:21:48;33.17;;;11.95;;
44578;SDS011;37422;51.402;0.016;2022-12-15T06:24:16;27.52;;;10.77;;
44578;SDS011;37422;51.402;0.016;2022-12-15T06:26:43;24.25;;;10.77;;
44578;SDS011;37422;51.402;0.016;2022-12-15T06:29:11;22.67;;;10.25;;
44578;SDS011;37422;51.402;0.016;2022-12-15T06:31:40;24.42;;;10.60;;
44578;SDS011;37422;51.402;0.016;2022-12-15T06:34:12;23.00;;;11.05;;
44578;SDS011;37422;51.402;0.016;2022-12-15T06:36:40;24.42;;;9.52;;
44578;SDS011;37422;51.402;0.016;2022-12-15T06:39:10;22.25;;;9.80;;
44578;SDS011;37422;51.402;0.016;2022-12-15T06:41:40;23.27;;;11.02;;
44578;SDS011;37422;51.402;0.016;2022-12-15T06:44:11;22.70;;;10.20;;
44578;SDS011;37422;51.402;0.016;2022-12-15T06:46:43;22.77;;;10.32;;
44578;SDS011;37422;51.402;0.016;2022-12-15T06:49:14;20.15;;;9.57;;
44578;SDS011;37422;51.402;0.016;2022-12-15T06:51:42;24.30;;;11.35;;
44578;SDS011;37422;51.402;0.016;2022-12-15T06:54:11;23.45;;;9.40;;
44578;SDS011;37422;51.402;0.016;2022-12-15T06:56:39;22.55;;;9.45;;
44578;SDS011;37422;51.402;0.016;2022-12-15T06:59:07;19.70;;;8.52;;
44578;SDS011;37422;51.402;0.016;2022-12-15T07:01:36;19.48;;;9.77;;
44578;SDS011;37422;51.402;0.016;2022-12-15T07:04:04;20.30;;;9.95;;
44578;SDS011;37422;51.402;0.016;2022-12-15T07:06:36;25.83;;;10.43;;
44578;SDS011;37422;51.402;0.016;2022-12-15T07:09:05;22.73;;;9.88;;
44578;SDS011;37422;51.402;0.016;2022-12-15T07:11:36;24.75;;;9.95;;
44578;SDS011;37422;51.402;0.016;2022-12-15T07:14:04;20.25;;;9.68;;
44578;SDS011;37422;51.402;0.016;2022-12-15T07:16:32;22.65;;;9.05;;
44578;SDS011;37422;51.402;0.016;2022-12-15T07:18:59;24.30;;;10.10;;
44578;SDS011;37422;51.402;0.016;2022-12-15T07:21:27;29.55;;;10.98;;
44578;SDS011;37422;51.402;0.016;2022-12-15T07:23:55;25.33;;;9.50;;
44578;SDS011;37422;51.402;0.016;2022-12-15T07:26:24;23.17;;;10.05;;
44578;SDS011;37422;51.402;0.016;2022-12-15T07:28:52;23.10;;;10.45;;
44578;SDS011;37422;51.402;0.016;2022-12-15T07:31:20;23.48;;;10.43;;
44578;SDS011;37422;51.402;0.016;2022-12-15T07:33:49;21.85;;;10.50;;
44578;SDS011;37422;51.402;0.016;2022-12-15T07:36:19;30.02;;;10.73;;
44578;SDS011;37422;51.402;0.016;2022-12-15T07:38:46;25.88;;;9.75;;
44578;SDS011;37422;51.402;0.016;2022-12-15T07:41:21;22.48;;;9.23;;
44578;SDS011;37422;51.402;0.016;2022-12-15T07:43:51;22.33;;;10.05;;
44578;SDS011;37422;51.402;0.016;2022-12-15T07:46:21;20.90;;;9.82;;
44578;SDS011;37422;51.402;0.016;2022-12-15T07:49:03;24.77;;;11.23;;
44578;SDS011;37422;51.402;0.016;2022-12-15T07:51:37;24.40;;;10.77;;
44578;SDS011;37422;51.402;0.016;2022-12-15T07:54:09;28.52;;;11.70;;
44578;SDS011;37422;51.402;0.016;2022-12-15T07:56:41;29.90;;;10.88;;
44578;SDS011;37422;51.402;0.016;2022-12-15T07:59:09;28.13;;;12.50;;
44578;SDS011;37422;51.402;0.016;2022-12-15T08:01:38;21.92;;;10.63;;
44578;SDS011;37422;51.402;0.016;2022-12-15T08:04:09;25.15;;;11.82;;
44578;SDS011;37422;51.402;0.016;2022-12-15T08:06:45;26.02;;;11.63;;
44578;SDS011;37422;51.402;0.016;2022-12-15T08:09:12;24.58;;;11.98;;
44578;SDS011;37422;51.402;0.016;2022-12-15T08:11:40;24.67;;;10.93;;
44578;SDS011;37422;51.402;0.016;2022-12-15T08:14:09;32.45;;;13.18;;
44578;SDS011;37422;51.402;0.016;2022-12-15T08:16:43;27.25;;;12.98;;
44578;SDS011;37422;51.402;0.016;2022-12-15T08:19:12;28.48;;;12.82;;
44578;SDS011;37422;51.402;0.016;2022-12-15T08:21:42;25.00;;;11.50;;
44578;SDS011;37422;51.402;0.016;2022-12-15T08:24:14;25.52;;;9.95;;
44578;SDS011;37422;51.402;0.016;2022-12-15T08:26:44;26.02;;;11.48;;
44578;SDS011;37422;51.402;0.016;2022-12-15T08:29:21;25.42;;;11.98;;
44578;SDS011;37422;51.402;0.016;2022-12-15T08:32:08;31.40;;;12.00;;
44578;SDS011;37422;51.402;0.016;2022-12-15T08:34:37;24.58;;;10.77;;
44578;SDS011;37422;51.402;0.016;2022-12-15T08:37:04;23.95;;;12.10;;
44578;SDS011;37422;51.402;0.016;2022-12-15T08:39:32;23.58;;;10.90;;
44578;SDS011;37422;51.402;0.016;2022-12-15T08:42:00;30.20;;;13.25;;
44578;SDS011;37422;51.402;0.016;2022-12-15T08:44:28;26.48;;;11.95;;
44578;SDS011;37422;51.402;0.016;2022-12-15T08:46:56;24.92;;;12.20;;
44578;SDS011;37422;51.402;0.016;2022-12-15T08:49:23;28.58;;;12.82;;
44578;SDS011;37422;51.402;0.016;2022-12-15T08:51:51;27.33;;;11.55;;
44578;SDS011;37422;51.402;0.016;2022-12-15T08:54:19;27.42;;;12.15;;
44578;SDS011;37422;51.402;0.016;2022-12-15T08:56:47;29.55;;;12.88;;
44578;SDS011;37422;51.402;0.016;2022-12-15T08:59:15;27.02;;;12.18;;
44578;SDS011;37422;51.402;0.016;2022-12-15T09:01:43;25.13;;;10.68;;
44578;SDS011;37422;51.402;0.016;2022-12-15T09:04:11;24.83;;;12.65;;
44578;SDS011;37422;51.402;0.016;2022-12-15T09:06:39;27.17;;;12.30;;
44578;SDS011;37422;51.402;0.016;2022-12-15T09:09:09;27.00;;;13.45;;
44578;SDS011;37422;51.402;0.016;2022-12-15T09:11:38;31.73;;;13.73;;
44578;SDS011;37422;51.402;0.016;2022-12-15T09:14:06;32.00;;;14.25;;
44578;SDS011;37422;51.402;0.016;2022-12-15T09:19:04;32.33;;;14.77;;
44578;SDS011;37422;51.402;0.016;2022-12-15T09:21:33;26.67;;;12.38;;
44578;SDS011;37422;51.402;0.016;2022-12-15T09:24:01;27.77;;;13.32;;
44578;SDS011;37422;51.402;0.016;2022-12-15T09:26:31;31.67;;;14.38;;
44578;SDS011;37422;51.402;0.016;2022-12-15T09:31:31;27.58;;;12.80;;
44578;SDS011;37422;51.402;0.016;2022-12-15T09:34:02;30.50;;;15.07;;
44578;SDS011;37422;51.402;0.016;2022-12-15T09:36:30;35.80;;;14.73;;
44578;SDS011;37422;51.402;0.016;2022-12-15T09:38:59;35.60;;;16.50;;
44578;SDS011;37422;51.402;0.016;2022-12-15T09:41:32;26.60;;;15.60;;
44578;SDS011;37422;51.402;0.016;2022-12-15T09:44:15;33.65;;;18.15;;
44578;SDS011;37422;51.402;0.016;2022-12-15T09:52:38;32.25;;;17.00;;
44578;SDS011;37422;51.402;0.016;2022-12-15T10:01:27;31.83;;;18.70;;
44578;SDS011;37422;51.402;0.016;2022-12-15T10:07:26;32.63;;;18.17;;
44578;SDS011;37422;51.402;0.016;2022-12-15T10:13:23;42.65;;;20.45;;
44578;SDS011;37422;51.402;0.016;2022-12-15T10:16:18;35.15;;;20.95;;
44578;SDS011;37422;51.402;0.016;2022-12-15T10:19:09;42.75;;;22.35;;
44578;SDS011;37422;51.402;0.016;2022-12-15T10:21:47;39.83;;;21.40;;
44578;SDS011;37422;51.402;0.016;2022-12-15T10:29:46;32.90;;;19.83;;
44578;SDS011;37422;51.402;0.016;2022-12-15T10:32:32;31.15;;;16.98;;
44578;SDS011;37422;51.402;0.016;2022-12-15T10:37:57;35.30;;;18.00;;
44578;SDS011;37422;51.402;0.016;2022-12-15T10:48:42;33.28;;;16.70;;
44578;SDS011;37422;51.402;0.016;2022-12-15T10:54:10;30.13;;;17.25;;
44578;SDS011;37422;51.402;0.016;2022-12-15T10:59:55;28.73;;;16.73;;
44578;SDS011;37422;51.402;0.016;2022-12-15T11:02:53;27.40;;;16.98;;
44578;SDS011;37422;51.402;0.016;2022-12-15T11:05:21;29.50;;;17.73;;
44578;SDS011;37422;51.402;0.016;2022-12-15T11:10:26;34.00;;;18.13;;
44578;SDS011;37422;51.402;0.016;2022-12-15T11:13:17;27.08;;;16.20;;
44578;SDS011;37422;51.402;0.016;2022-12-15T11:15:50;25.38;;;15.63;;
44578;SDS011;37422;51.402;0.016;2022-12-15T11:23:29;31.15;;;17.38;;
44578;SDS011;37422;51.402;0.016;2022-12-15T11:26:03;27.23;;;13.70;;
44578;SDS011;37422;51.402;0.016;2022-12-15T11:28:56;27.63;;;14.88;;
44578;SDS011;37422;51.402;0.016;2022-12-15T11:31:44;26.98;;;14.15;;
44578;SDS011;37422;51.402;0.016;2022-12-15T11:34:15;27.42;;;14.43;;
44578;SDS011;37422;51.402;0.016;2022-12-15T11:36:52;26.08;;;15.05;;
44578;SDS011;37422;51.402;0.016;2022-12-15T11:42:19;25.98;;;14.82;;
44578;SDS011;37422;51.402;0.016;2022-12-15T11:47:46;25.90;;;15.00;;
44578;SDS011;37422;51.402;0.016;2022-12-15T11:50:28;31.15;;;15.98;;
44578;SDS011;37422;51.402;0.016;2022-12-15T11:53:13;25.35;;;15.48;;
44578;SDS011;37422;51.402;0.016;2022-12-15T12:06:32;27.65;;;14.88;;
44578;SDS011;37422;51.402;0.016;2022-12-15T12:12:19;25.70;;;12.80;;
44578;SDS011;37422;51.402;0.016;2022-12-15T12:15:07;24.63;;;13.18;;
44578;SDS011;37422;51.402;0.016;2022-12-15T12:17:50;24.30;;;13.13;;
44578;SDS011;37422;51.402;0.016;2022-12-15T12:20:23;23.60;;;13.32;;
44578;SDS011;37422;51.402;0.016;2022-12-15T12:23:16;23.33;;;13.30;;
44578;SDS011;37422;51.402;0.016;2022-12-15T12:25:49;26.35;;;14.65;;
44578;SDS011;37422;51.402;0.016;2022-12-15T12:34:20;23.83;;;13.43;;
44578;SDS011;37422;51.402;0.016;2022-12-15T12:36:53;21.73;;;13.02;;
44578;SDS011;37422;51.402;0.016;2022-12-15T12:39:27;24.00;;;13.63;;
44578;SDS011;37422;51.402;0.016;2022-12-15T12:42:12;25.53;;;14.37;;
44578;SDS011;37422;51.402;0.016;2022-12-15T12:44:59;23.00;;;13.45;;
44578;SDS011;37422;51.402;0.016;2022-12-15T12:47:30;23.63;;;13.20;;
44578;SDS011;37422;51.402;0.016;2022-12-15T12:50:06;31.70;;;16.63;;
44578;SDS011;37422;51.402;0.016;2022-12-15T12:52:51;23.42;;;13.70;;
44578;SDS011;37422;51.402;0.016;2022-12-15T12:55:28;24.60;;;14.63;;
44578;SDS011;37422;51.402;0.016;2022-12-15T12:58:12;26.35;;;15.15;;
44578;SDS011;37422;51.402;0.016;2022-12-15T13:01:24;24.27;;;15.55;;
44578;SDS011;37422;51.402;0.016;2022-12-15T13:04:13;26.60;;;15.88;;
44578;SDS011;37422;51.402;0.016;2022-12-15T13:07:03;25.02;;;15.65;;
44578;SDS011;37422;51.402;0.016;2022-12-15T13:12:51;26.70;;;15.48;;
44578;SDS011;37422;51.402;0.016;2022-12-15T13:15:40;31.17;;;16.40;;
44578;SDS011;37422;51.402;0.016;2022-12-15T13:18:20;31.35;;;17.33;;
44578;SDS011;37422;51.402;0.016;2022-12-15T13:20:54;26.52;;;14.93;;
44578;SDS011;37422;51.402;0.016;2022-12-15T13:33:50;29.45;;;17.10;;
44578;SDS011;37422;51.402;0.016;2022-12-15T13:42:13;28.88;;;15.23;;
44578;SDS011;37422;51.402;0.016;2022-12-15T13:44:51;26.17;;;15.10;;
44578;SDS011;37422;51.402;0.016;2022-12-15T13:47:25;32.35;;;17.00;;
44578;SDS011;37422;51.402;0.016;2022-12-15T13:50:00;28.67;;;15.57;;
44578;SDS011;37422;51.402;0.016;2022-12-15T13:53:03;27.60;;;15.80;;
44578;SDS011;37422;51.402;0.016;2022-12-15T13:55:56;28.55;;;15.70;;
44578;SDS011;37422;51.402;0.016;2022-12-15T13:58:31;41.92;;;15.65;;
44578;SDS011;37422;51.402;0.016;2022-12-15T14:01:16;28.98;;;15.50;;
44578;SDS011;37422;51.402;0.016;2022-12-15T14:04:02;32.38;;;15.75;;
44578;SDS011;37422;51.402;0.016;2022-12-15T14:06:34;35.88;;;15.02;;
44578;SDS011;37422;51.402;0.016;2022-12-15T14:09:05;27.42;;;14.10;;
44578;SDS011;37422;51.402;0.016;2022-12-15T14:11:36;27.00;;;13.82;;
44578;SDS011;37422;51.402;0.016;2022-12-15T14:14:30;32.20;;;15.77;;
44578;SDS011;37422;51.402;0.016;2022-12-15T14:17:09;24.75;;;13.65;;
44578;SDS011;37422;51.402;0.016;2022-12-15T14:19:42;25.88;;;12.32;;
44578;SDS011;37422;51.402;0.016;2022-12-15T14:22:24;29.15;;;13.90;;
44578;SDS011;37422;51.402;0.016;2022-12-15T14:25:10;25.90;;;12.75;;
44578;SDS011;37422;51.402;0.016;2022-12-15T14:27:47;26.23;;;11.70;;
44578;SDS011;37422;51.402;0.016;2022-12-15T14:30:21;25.45;;;11.68;;
44578;SDS011;37422;51.402;0.016;2022-12-15T14:32:58;23.60;;;11.10;;
44578;SDS011;37422;51.402;0.016;2022-12-15T14:35:33;23.40;;;9.80;;
44578;SDS011;37422;51.402;0.016;2022-12-15T14:38:06;21.38;;;8.93;;
44578;SDS011;37422;51.402;0.016;2022-12-15T14:40:40;21.38;;;9.70;;
44578;SDS011;37422;51.402;0.016;2022-12-15T14:43:16;19.83;;;9.57;;
44578;SDS011;37422;51.402;0.016;2022-12-15T14:45:49;22.88;;;9.82;;
44578;SDS011;37422;51.402;0.016;2022-12-15T14:48:32;23.55;;;8.40;;
44578;SDS011;37422;51.402;0.016;2022-12-15T14:51:09;18.70;;;7.97;;
44578;SDS011;37422;51.402;0.016;2022-12-15T14:53:39;25.45;;;8.95;;
44578;SDS011;37422;51.402;0.016;2022-12-15T14:56:12;24.55;;;8.82;;
44578;SDS011;37422;51.402;0.016;2022-12-15T14:59:02;15.82;;;7.07;;
44578;SDS011;37422;51.402;0.016;2022-12-15T15:01:57;16.10;;;7.80;;
44578;SDS011;37422;51.402;0.016;2022-12-15T15:04:30;18.63;;;6.88;;
44578;SDS011;37422;51.402;0.016;2022-12-15T15:06:59;16.10;;;7.47;;
44578;SDS011;37422;51.402;0.016;2022-12-15T15:09:37;23.17;;;7.47;;
44578;SDS011;37422;51.402;0.016;2022-12-15T15:12:07;22.42;;;7.57;;
44578;SDS011;37422;51.402;0.016;2022-12-15T15:14:40;17.42;;;7.50;;
44578;SDS011;37422;51.402;0.016;2022-12-15T15:19:44;18.02;;;7.07;;
44578;SDS011;37422;51.402;0.016;2022-12-15T15:30:50;18.35;;;7.30;;
44578;SDS011;37422;51.402;0.016;2022-12-15T15:33:23;17.50;;;7.85;;
44578;SDS011;37422;51.402;0.016;2022-12-15T15:35:52;20.98;;;6.28;;
44578;SDS011;37422;51.402;0.016;2022-12-15T15:38:23;21.48;;;8.18;;
44578;SDS011;37422;51.402;0.016;2022-12-15T15:40:56;19.13;;;8.00;;
44578;SDS011;37422;51.402;0.016;2022-12-15T15:43:25;21.35;;;8.07;;
44578;SDS011;37422;51.402;0.016;2022-12-15T15:46:03;20.88;;;7.57;;
44578;SDS011;37422;51.402;0.016;2022-12-15T15:48:34;18.25;;;7.30;;
44578;SDS011;37422;51.402;0.016;2022-12-15T15:51:15;22.08;;;8.38;;
44578;SDS011;37422;51.402;0.016;2022-12-15T15:53:44;17.23;;;7.57;;
44578;SDS011;37422;51.402;0.016;2022-12-15T15:56:13;18.73;;;8.05;;
44578;SDS011;37422;51.402;0.016;2022-12-15T15:58:44;17.05;;;8.43;;
44578;SDS011;37422;51.402;0.016;2022-12-15T16:01:12;20.23;;;8.90;;
44578;SDS011;37422;51.402;0.016;2022-12-15T16:03:40;17.70;;;8.05;;
44578;SDS011;37422;51.402;0.016;2022-12-15T16:06:15;15.43;;;7.47;;
44578;SDS011;37422;51.402;0.016;2022-12-15T16:08:45;16.95;;;7.10;;
44578;SDS011;37422;51.402;0.016;2022-12-15T16:11:16;16.73;;;7.47;;
44578;SDS011;37422;51.402;0.016;2022-12-15T16:13:45;17.45;;;8.02;;
44578;SDS011;37422;51.402;0.016;2022-12-15T16:16:31;23.60;;;7.38;;
44578;SDS011;37422;51.402;0.016;2022-12-15T16:18:59;24.20;;;8.32;;
44578;SDS011;37422;51.402;0.016;2022-12-15T16:21:27;17.83;;;8.45;;
44578;SDS011;37422;51.402;0.016;2022-12-15T16:23:55;16.30;;;8.30;;
44578;SDS011;37422;51.402;0.016;2022-12-15T16:26:28;20.30;;;8.73;;
44578;SDS011;37422;51.402;0.016;2022-12-15T16:28:57;24.02;;;9.63;;
44578;SDS011;37422;51.402;0.016;2022-12-15T16:34:07;19.30;;;8.48;;
44578;SDS011;37422;51.402;0.016;2022-12-15T16:36:35;21.92;;;8.90;;
44578;SDS011;37422;51.402;0.016;2022-12-15T16:39:03;19.30;;;8.50;;
44578;SDS011;37422;51.402;0.016;2022-12-15T16:41:34;21.02;;;10.68;;
44578;SDS011;37422;51.402;0.016;2022-12-15T16:44:02;26.30;;;10.27;;
44578;SDS011;37422;51.402;0.016;2022-12-15T16:46:32;22.85;;;10.70;;
44578;SDS011;37422;51.402;0.016;2022-12-15T16:49:00;25.80;;;10.23;;
44578;SDS011;37422;51.402;0.016;2022-12-15T16:51:38;24.98;;;11.77;;
44578;SDS011;37422;51.402;0.016;2022-12-15T16:54:12;21.52;;;10.50;;
44578;SDS011;37422;51.402;0.016;2022-12-15T16:56:44;21.83;;;10.75;;
44578;SDS011;37422;51.402;0.016;2022-12-15T16:59:15;29.75;;;11.13;;
44578;SDS011;37422;51.402;0.016;2022-12-15T17:02:13;21.20;;;9.70;;
44578;SDS011;37422;51.402;0.016;2022-12-15T17:04:51;24.97;;;10.70;;
44578;SDS011;37422;51.402;0.016;2022-12-15T17:07:21;28.37;;;10.33;;
44578;SDS011;37422;51.402;0.016;2022-12-15T17:09:52;20.90;;;10.20;;
44578;SDS011;37422;51.402;0.016;2022-12-15T17:12:20;23.25;;;10.40;;
44578;SDS011;37422;51.402;0.016;2022-12-15T17:14:48;20.13;;;9.70;;
44578;SDS011;37422;51.402;0.016;2022-12-15T17:17:17;23.40;;;10.68;;
44578;SDS011;37422;51.402;0.016;2022-12-15T17:19:49;31.42;;;10.55;;
44578;SDS011;37422;51.402;0.016;2022-12-15T17:22:37;26.80;;;11.13;;
44578;SDS011;37422;51.402;0.016;2022-12-15T17:25:07;22.85;;;11.25;;
44578;SDS011;37422;51.402;0.016;2022-12-15T17:27:41;24.02;;;12.95;;
44578;SDS011;37422;51.402;0.016;2022-12-15T17:30:11;24.90;;;11.30;;
44578;SDS011;37422;51.402;0.016;2022-12-15T17:32:41;25.95;;;13.15;;
44578;SDS011;37422;51.402;0.016;2022-12-15T17:35:10;26.40;;;12.05;;
44578;SDS011;37422;51.402;0.016;2022-12-15T17:37:38;27.80;;;12.32;;
44578;SDS011;37422;51.402;0.016;2022-12-15T17:40:20;24.95;;;11.18;;